Terminal Aerodrome Forecast
Issued by NWS Indianapolis, IN

Home | Current Version | Previous Version | Text Only | Print | Product List | Glossary On
Versions: 1 2 3 4 5 6 7 8 9 10 11 12 13 14 15 16 17 18 19 20 21 22 23 24 25
000
FTUS43 KIND 181433 AAB
TAFIND
TAF AMD
KIND 181433Z 1815/1918 23007KT P6SM -DZ OVC008
     FM181600 23007KT P6SM OVC008
     FM181900 24007KT P6SM OVC010
     FM190200 22008KT P6SM SCT040
     FM190300 22007KT P6SM BKN060
     FM191500 23009KT P6SM SCT140=

USA.gov is the U.S. government's official web portal to all federal, state and local government web resources and services.